Terminal Aerodrome Forecast
Issued by NWS

Home | Current Version | Previous Version | Text Only | Print | Product List | Glossary Off
Versions: 1 2 3 4 5 6 7 8 9 10 11 12 13 14 15 16 17

000
FTUS42 KMHX 230105 AAA
TAFPGV
TAF AMD
KPGV 230105Z 2301/2324 01010KT P6SM VCTS OVC012CB
     FM230230 05008KT P6SM VCSH OVC012
     FM230400 03009KT P6SM VCSH BKN008
     FM231700 06011KT P6SM VCSH OVC015
      AMD LTD TO CLD VIS AND WIND=

USA.gov is the U.S. government's official web portal to all federal, state and local government web resources and services.